createdAt,value
2019-05-11T00:01:29.850Z,64.50
2019-05-11T00:04:02.199Z,64.50
2019-05-11T00:06:34.949Z,64.40
2019-05-11T00:09:07.900Z,64.50
2019-05-11T00:11:39.848Z,64.40
2019-05-11T00:14:12.478Z,64.70
2019-05-11T00:16:44.746Z,64.80
2019-05-11T00:19:17.123Z,65.00
2019-05-11T00:21:49.061Z,65.30
2019-05-11T00:24:21.935Z,65.70
2019-05-11T00:26:54.416Z,65.80
2019-05-11T00:29:26.721Z,65.80
2019-05-11T00:31:59.389Z,65.10
2019-05-11T00:34:32.117Z,65.10
2019-05-11T00:37:04.078Z,65.50
2019-05-11T00:39:36.806Z,65.70
2019-05-11T00:42:09.956Z,65.90
2019-05-11T00:44:42.438Z,66.50
2019-05-11T00:47:15.450Z,67.30
2019-05-11T00:49:47.996Z,68.70
2019-05-11T00:52:19.967Z,69.10
2019-05-11T00:54:52.321Z,69.30
2019-05-11T00:57:24.530Z,69.50
2019-05-11T00:59:56.451Z,69.70
2019-05-11T01:02:29.268Z,69.50
2019-05-11T01:05:01.503Z,69.70
2019-05-11T01:07:33.822Z,69.10
2019-05-11T01:10:06.495Z,68.90
2019-05-11T01:12:38.460Z,68.70
2019-05-11T01:15:10.672Z,68.60
2019-05-11T01:17:42.902Z,68.10
2019-05-11T01:20:18.567Z,68.20
2019-05-11T01:22:49.835Z,68.20
2019-05-11T01:25:22.046Z,68.10
2019-05-11T01:27:54.394Z,68.00
2019-05-11T01:30:26.703Z,68.00
2019-05-11T01:32:59.384Z,68.30
2019-05-11T01:35:31.286Z,68.30
2019-05-11T01:38:03.519Z,68.60
2019-05-11T01:40:35.778Z,68.70
2019-05-11T01:43:07.992Z,69.20
2019-05-11T01:45:40.523Z,69.40
2019-05-11T01:48:12.789Z,69.80
2019-05-11T01:50:45.061Z,69.80
2019-05-11T01:53:16.885Z,69.60
2019-05-11T01:55:49.506Z,69.60
2019-05-11T01:58:21.692Z,69.80
2019-05-11T02:00:55.048Z,69.10
2019-05-11T02:03:27.287Z,69.10
2019-05-11T02:05:59.420Z,69.40
2019-05-11T02:08:31.329Z,69.60
2019-05-11T02:11:15.354Z,70.30
2019-05-11T02:13:37.103Z,70.50
2019-05-11T02:16:09.309Z,70.30
2019-05-11T02:18:41.616Z,70.00
2019-05-11T02:21:14.103Z,69.80
2019-05-11T02:23:46.345Z,69.80
2019-05-11T02:26:18.847Z,69.90
2019-05-11T02:28:51.136Z,69.90
2019-05-11T02:31:23.603Z,70.30
2019-05-11T02:33:55.955Z,71.10
2019-05-11T02:36:27.822Z,71.80
2019-05-11T02:39:00.013Z,72.10
2019-05-11T02:41:36.403Z,71.70
2019-05-11T02:44:05.536Z,71.30
2019-05-11T02:46:38.009Z,70.90
2019-05-11T02:49:10.212Z,70.40
2019-05-11T02:51:42.632Z,70.10
2019-05-11T02:54:14.865Z,69.50
2019-05-11T02:56:47.349Z,69.20
2019-05-11T02:59:19.823Z,69.50
2019-05-11T03:01:51.660Z,69.60
2019-05-11T03:04:23.570Z,69.70
2019-05-11T03:06:55.450Z,69.90
2019-05-11T03:09:27.707Z,70.50
2019-05-11T03:11:59.568Z,71.60
2019-05-11T03:14:32.096Z,72.00
2019-05-11T03:17:19.909Z,72.30
2019-05-11T03:19:52.246Z,72.30
2019-05-11T03:22:25.058Z,72.20
2019-05-11T03:24:56.997Z,72.30
2019-05-11T03:27:28.991Z,72.50
2019-05-11T03:30:02.195Z,72.70
2019-05-11T03:32:34.743Z,73.00
2019-05-11T03:35:07.174Z,73.00
2019-05-11T03:37:39.781Z,72.60
2019-05-11T03:40:11.880Z,73.00
2019-05-11T03:42:43.785Z,73.50
2019-05-11T03:45:16.040Z,73.70
2019-05-11T03:47:47.953Z,73.50
2019-05-11T03:50:19.926Z,72.90
2019-05-11T03:52:52.197Z,73.50
2019-05-11T03:55:24.104Z,73.60
2019-05-11T03:57:55.969Z,73.80
2019-05-11T04:00:27.891Z,73.30
2019-05-11T04:03:00.057Z,73.60
2019-05-11T04:05:32.370Z,73.80
2019-05-11T04:08:04.531Z,73.40
2019-05-11T04:10:36.457Z,73.00
2019-05-11T04:13:09.057Z,72.90
2019-05-11T04:15:40.956Z,73.20
2019-05-11T04:18:13.114Z,73.70
2019-05-11T04:20:45.031Z,74.20
2019-05-11T04:23:17.345Z,74.00
2019-05-11T04:25:49.236Z,74.00
2019-05-11T04:28:21.410Z,74.10
2019-05-11T04:30:53.307Z,74.50
2019-05-11T04:33:25.445Z,74.60
2019-05-11T04:35:58.031Z,74.40
2019-05-11T04:38:29.897Z,74.60
2019-05-11T04:41:02.077Z,74.80
2019-05-11T04:43:34.378Z,75.30
2019-05-11T04:46:06.275Z,75.70
2019-05-11T04:48:38.217Z,75.30
2019-05-11T04:51:10.142Z,75.30
2019-05-11T04:53:42.685Z,75.70
2019-05-11T04:56:15.269Z,75.50
2019-05-11T04:58:47.410Z,75.40
2019-05-11T05:01:20.174Z,75.20
2019-05-11T05:03:54.271Z,74.90
2019-05-11T05:06:25.902Z,75.20
2019-05-11T05:09:03.826Z,75.00
2019-05-11T05:11:36.595Z,74.80
2019-05-11T05:14:08.150Z,74.60
2019-05-11T05:16:40.641Z,74.60
2019-05-11T05:19:13.114Z,74.20
2019-05-11T05:21:45.358Z,73.80
2019-05-11T05:24:18.096Z,73.40
2019-05-11T05:26:50.549Z,73.60
2019-05-11T05:29:22.706Z,73.00
2019-05-11T05:31:54.884Z,72.70
2019-05-11T05:34:26.760Z,72.50
2019-05-11T05:36:58.657Z,74.20
2019-05-11T05:39:30.559Z,74.00
2019-05-11T05:42:03.282Z,74.50
2019-05-11T05:44:35.554Z,74.50
2019-05-11T05:47:08.843Z,73.70
2019-05-11T05:49:41.118Z,73.40
2019-05-11T05:52:13.647Z,73.40
2019-05-11T05:54:45.490Z,72.90
2019-05-11T05:57:17.738Z,73.00
2019-05-11T05:59:49.624Z,73.60
2019-05-11T06:02:22.668Z,74.10
2019-05-11T06:04:54.933Z,74.10
2019-05-11T06:07:27.158Z,73.80
2019-05-11T06:09:59.624Z,73.80
2019-05-11T06:12:31.526Z,73.40
2019-05-11T06:15:03.450Z,72.90
2019-05-11T06:17:35.611Z,72.90
2019-05-11T06:20:08.465Z,72.40
2019-05-11T06:22:41.290Z,72.10
2019-05-11T06:25:14.932Z,70.80
2019-05-11T06:27:47.200Z,71.20
2019-05-11T06:30:19.082Z,72.00
2019-05-11T06:32:51.357Z,72.10
2019-05-11T06:35:23.368Z,71.70
2019-05-11T06:37:55.896Z,71.60
2019-05-11T06:40:28.756Z,70.40
2019-05-11T06:43:00.998Z,69.20
2019-05-11T06:45:33.335Z,68.40
2019-05-11T06:48:06.175Z,68.10
2019-05-11T06:50:38.385Z,65.50
2019-05-11T06:53:11.154Z,66.60
2019-05-11T06:55:43.361Z,67.20
2019-05-11T06:58:15.729Z,66.40
2019-05-11T07:00:47.876Z,64.30
2019-05-11T07:03:20.325Z,63.60
2019-05-11T07:05:53.200Z,61.50
2019-05-11T07:08:25.895Z,61.20
2019-05-11T07:10:58.154Z,61.70
2019-05-11T07:13:31.800Z,60.60
2019-05-11T07:16:04.547Z,60.90
2019-05-11T07:18:37.607Z,60.70
2019-05-11T07:21:09.475Z,60.20
2019-05-11T07:23:41.758Z,60.20
2019-05-11T07:26:14.719Z,60.80
2019-05-11T07:28:47.415Z,59.50
2019-05-11T07:31:19.894Z,60.30
2019-05-11T07:33:52.540Z,60.80
2019-05-11T07:36:24.750Z,60.70
2019-05-11T07:38:58.097Z,59.30
2019-05-11T07:41:30.930Z,57.90
2019-05-11T07:44:03.237Z,56.80
2019-05-11T07:46:37.720Z,54.90
2019-05-11T07:49:09.916Z,55.00
2019-05-11T07:51:42.308Z,52.60
2019-05-11T07:54:14.876Z,52.80
2019-05-11T07:56:47.885Z,51.30
2019-05-11T07:59:20.313Z,53.10
2019-05-11T08:01:52.953Z,51.70
2019-05-11T08:04:24.890Z,47.70
2019-05-11T08:06:58.417Z,49.60
2019-05-11T08:09:30.508Z,49.70
2019-05-11T08:12:03.192Z,47.30
2019-05-11T08:14:52.007Z,49.60
2019-05-11T08:17:09.415Z,48.20
2019-05-11T08:19:42.066Z,48.40
2019-05-11T08:22:13.923Z,47.00
2019-05-11T08:24:48.101Z,45.10
2019-05-11T08:27:20.230Z,46.50
2019-05-11T08:29:52.418Z,43.40
2019-05-11T08:32:29.553Z,46.70
2019-05-11T08:35:02.072Z,46.50
2019-05-11T08:37:34.318Z,46.20
2019-05-11T08:40:10.204Z,46.20
2019-05-11T08:42:49.554Z,45.50
2019-05-11T08:45:24.742Z,43.70
2019-05-11T08:47:57.990Z,40.60
2019-05-11T08:50:29.702Z,39.60
2019-05-11T08:53:01.589Z,38.50
2019-05-11T08:55:34.085Z,38.80
2019-05-11T08:58:07.934Z,38.80
2019-05-11T09:00:40.646Z,37.10
2019-05-11T09:03:13.305Z,38.80
2019-05-11T09:05:45.400Z,34.30
2019-05-11T09:08:18.815Z,36.60
2019-05-11T09:10:51.157Z,36.80
2019-05-11T09:13:23.513Z,37.10
2019-05-11T09:15:55.439Z,36.10
2019-05-11T09:18:28.101Z,35.10
2019-05-11T09:21:01.264Z,34.50
2019-05-11T09:23:37.333Z,34.70
2019-05-11T09:26:08.714Z,32.30
2019-05-11T09:28:41.071Z,32.60
2019-05-11T09:31:13.921Z,35.50
2019-05-11T09:33:47.977Z,36.40
2019-05-11T09:36:20.190Z,36.20
2019-05-11T09:38:52.393Z,37.30
2019-05-11T09:41:25.153Z,36.00
2019-05-11T09:43:58.665Z,35.20
2019-05-11T09:46:31.553Z,35.20
2019-05-11T09:49:03.454Z,36.00
2019-05-11T09:51:37.807Z,36.40
2019-05-11T09:54:09.450Z,33.30
2019-05-11T09:56:41.641Z,33.10
2019-05-11T09:59:13.999Z,30.90
2019-05-11T10:01:48.433Z,32.60
2019-05-11T10:04:21.021Z,31.30
2019-05-11T10:06:53.484Z,30.00
2019-05-11T10:09:28.463Z,29.10
2019-05-11T10:12:01.251Z,26.80
2019-05-11T10:14:34.282Z,27.80
2019-05-11T10:17:07.779Z,28.70
2019-05-11T10:19:40.077Z,26.90
2019-05-11T10:22:13.036Z,26.80
2019-05-11T10:24:47.841Z,26.20
2019-05-11T10:27:20.429Z,27.60
2019-05-11T10:29:53.559Z,27.30
2019-05-11T10:32:28.641Z,28.50
2019-05-11T10:35:00.992Z,28.00
2019-05-11T10:37:34.152Z,26.90
2019-05-11T10:40:06.165Z,28.70
2019-05-11T10:42:38.100Z,31.10
2019-05-11T10:45:10.563Z,32.00
2019-05-11T10:47:42.776Z,32.70
2019-05-11T10:50:14.867Z,30.60
2019-05-11T10:52:48.359Z,31.00
2019-05-11T10:55:20.526Z,28.70
2019-05-11T10:57:52.430Z,28.30
2019-05-11T11:00:24.734Z,29.20
2019-05-11T11:02:58.276Z,28.00
2019-05-11T11:05:30.332Z,27.80
2019-05-11T11:08:02.837Z,26.00
2019-05-11T11:10:34.731Z,25.80
2019-05-11T11:13:08.355Z,26.40
2019-05-11T11:15:40.676Z,25.10
2019-05-11T11:18:12.906Z,26.10
2019-05-11T11:20:45.062Z,26.30
2019-05-11T11:23:17.887Z,27.80
2019-05-11T11:25:49.865Z,27.60
2019-05-11T11:28:22.632Z,25.90
2019-05-11T11:30:54.599Z,25.90
2019-05-11T11:33:27.659Z,27.30
2019-05-11T11:35:59.854Z,26.70
2019-05-11T11:38:32.890Z,25.70
2019-05-11T11:41:05.060Z,26.80
2019-05-11T11:43:37.872Z,26.80
2019-05-11T11:46:10.500Z,24.70
2019-05-11T11:48:42.693Z,23.20
2019-05-11T11:51:14.676Z,23.10
2019-05-11T11:53:47.867Z,23.30
2019-05-11T11:56:19.920Z,24.90
2019-05-11T11:58:52.101Z,24.70
2019-05-11T12:01:24.256Z,24.90
2019-05-11T12:03:58.126Z,24.70
2019-05-11T12:06:30.129Z,23.10
2019-05-11T12:09:03.804Z,23.00
2019-05-11T12:11:37.970Z,24.70
2019-05-11T12:14:09.813Z,25.60
2019-05-11T12:16:42.063Z,25.30
2019-05-11T12:19:14.389Z,24.70
2019-05-11T12:21:48.397Z,24.20
2019-05-11T12:24:20.742Z,22.10
2019-05-11T12:26:52.982Z,21.80
2019-05-11T12:29:25.224Z,20.60
2019-05-11T12:31:59.536Z,20.80
2019-05-11T12:34:31.761Z,20.80
2019-05-11T12:37:03.623Z,22.60
2019-05-11T12:39:35.821Z,22.30
2019-05-11T12:42:08.682Z,22.80
2019-05-11T12:44:40.974Z,23.80
2019-05-11T12:47:22.272Z,24.60
2019-05-11T12:49:48.352Z,25.70
2019-05-11T12:52:20.992Z,25.80
2019-05-11T12:54:52.930Z,26.90
2019-05-11T12:57:25.186Z,25.90
2019-05-11T12:59:58.216Z,26.00
2019-05-11T13:02:30.961Z,27.10
2019-05-11T13:05:03.608Z,27.20
2019-05-11T13:07:36.347Z,25.60
2019-05-11T13:10:09.294Z,23.60
2019-05-11T13:12:41.200Z,22.70
2019-05-11T13:15:13.121Z,20.80
2019-05-11T13:17:45.346Z,20.40
2019-05-11T13:20:18.190Z,19.50
2019-05-11T13:22:50.684Z,20.40
2019-05-11T13:25:22.859Z,22.00
2019-05-11T13:27:55.011Z,23.40
2019-05-11T13:30:28.026Z,23.40
2019-05-11T13:33:00.283Z,24.80
2019-05-11T13:35:33.283Z,24.30
2019-05-11T13:38:05.601Z,24.40
2019-05-11T13:40:38.370Z,25.90
2019-05-11T13:43:10.533Z,25.00
2019-05-11T13:45:43.284Z,23.10
2019-05-11T13:48:15.125Z,22.60
2019-05-11T13:50:48.008Z,23.30
2019-05-11T13:53:20.327Z,21.80
2019-05-11T13:55:52.558Z,23.00
2019-05-11T13:58:24.704Z,22.90
2019-05-11T14:00:58.540Z,23.50
2019-05-11T14:03:31.072Z,23.90
2019-05-11T14:06:03.500Z,23.60
2019-05-11T14:08:38.252Z,24.70
2019-05-11T14:11:09.694Z,25.70
2019-05-11T14:13:41.586Z,25.50
2019-05-11T14:16:14.174Z,24.90
2019-05-11T14:18:48.913Z,24.80
2019-05-11T14:21:20.683Z,25.10
2019-05-11T14:23:53.245Z,23.40
2019-05-11T14:26:28.061Z,21.40
2019-05-11T14:29:00.410Z,21.60
2019-05-11T14:31:33.220Z,19.90
2019-05-11T14:34:05.669Z,19.60
2019-05-11T14:36:38.932Z,19.60
2019-05-11T14:39:11.036Z,20.80
2019-05-11T14:41:43.261Z,22.70
2019-05-11T14:44:17.952Z,24.20
2019-05-11T14:46:49.464Z,25.90
2019-05-11T14:49:21.983Z,28.00
2019-05-11T14:51:54.705Z,30.70
2019-05-11T14:54:28.843Z,33.60
2019-05-11T14:57:01.622Z,39.50
2019-05-11T14:59:34.407Z,45.00
2019-05-11T15:02:25.293Z,49.30
2019-05-11T15:04:58.649Z,51.70
2019-05-11T15:07:31.040Z,53.50
2019-05-11T15:10:02.950Z,55.20
2019-05-11T15:12:35.147Z,57.00
2019-05-11T15:15:08.014Z,58.50
2019-05-11T15:17:40.355Z,59.30
2019-05-11T15:20:12.840Z,60.30
2019-05-11T15:22:45.158Z,61.00
2019-05-11T15:25:19.559Z,60.90
2019-05-11T15:27:52.257Z,61.10
2019-05-11T15:30:24.481Z,59.30
2019-05-11T15:32:58.414Z,59.70
2019-05-11T15:35:31.041Z,59.70
2019-05-11T15:38:03.427Z,59.60
2019-05-11T15:40:38.123Z,60.50
2019-05-11T15:43:09.905Z,60.70
2019-05-11T15:45:41.838Z,62.50
2019-05-11T15:48:13.872Z,62.90
2019-05-11T15:50:48.424Z,63.60
2019-05-11T15:53:20.064Z,63.10
2019-05-11T15:55:51.949Z,64.10
2019-05-11T15:58:24.693Z,64.20
2019-05-11T16:22:48.054Z,63.60
2019-05-11T16:25:20.409Z,65.20
2019-05-11T16:27:52.279Z,65.30
2019-05-11T16:34:52.544Z,65.10
2019-05-11T16:37:24.837Z,63.80
2019-05-11T16:39:58.365Z,64.40
2019-05-11T16:42:30.736Z,64.20
2019-05-11T16:45:03.217Z,63.20
2019-05-11T16:47:35.132Z,62.90
2019-05-11T16:50:08.634Z,63.20
2019-05-11T16:52:40.565Z,60.90
2019-05-11T16:55:13.030Z,61.00
2019-05-11T16:57:48.549Z,61.00
2019-05-11T17:00:20.598Z,59.40
2019-05-11T17:02:53.643Z,59.00
2019-05-11T17:05:27.364Z,59.60
2019-05-11T17:07:59.556Z,58.40
2019-05-11T17:10:31.474Z,57.70
2019-05-11T17:13:03.408Z,57.30
2019-05-11T17:15:35.905Z,57.10
2019-05-11T17:18:08.127Z,56.50
2019-05-11T17:20:40.016Z,56.70
2019-05-11T17:23:12.257Z,56.80
2019-05-11T17:25:44.747Z,57.20
2019-05-11T17:28:16.920Z,57.60
2019-05-11T17:30:48.784Z,57.80
2019-05-11T17:33:20.879Z,57.60
2019-05-11T17:35:53.094Z,57.20
2019-05-11T17:38:28.033Z,57.80
2019-05-11T17:41:00.413Z,57.50
2019-05-11T17:43:33.442Z,58.20
2019-05-11T17:46:07.853Z,58.60
2019-05-11T17:48:40.194Z,57.80
2019-05-11T17:51:21.420Z,58.60
2019-05-11T17:53:48.216Z,59.00
2019-05-11T17:56:19.896Z,59.30
2019-05-11T17:58:52.788Z,59.70
2019-05-11T18:01:27.626Z,59.50
2019-05-11T18:03:59.288Z,59.10
2019-05-11T18:06:31.250Z,59.20
2019-05-11T18:09:03.684Z,59.60
2019-05-11T18:11:37.979Z,59.60
2019-05-11T18:14:10.540Z,60.10
2019-05-11T18:16:43.827Z,61.00
2019-05-11T18:19:15.721Z,61.40
2019-05-11T18:21:48.744Z,62.00
2019-05-11T18:24:21.597Z,62.10
2019-05-11T18:26:53.474Z,62.40
2019-05-11T18:29:26.083Z,62.50
2019-05-11T18:31:58.661Z,62.40
2019-05-11T18:34:30.527Z,62.40
2019-05-11T18:37:02.467Z,64.10
2019-05-11T18:39:34.937Z,65.20
2019-05-11T18:42:08.286Z,67.80
2019-05-11T18:44:41.279Z,68.70
2019-05-11T18:47:13.180Z,69.40
2019-05-11T18:49:48.312Z,70.50
2019-05-11T18:52:19.426Z,71.70
2019-05-11T18:54:52.722Z,71.80
2019-05-11T18:57:27.639Z,72.20
2019-05-11T18:59:59.377Z,71.80
2019-05-11T19:02:31.228Z,71.60
2019-05-11T19:05:03.433Z,72.00
2019-05-11T19:07:35.586Z,71.40
2019-05-11T19:10:08.571Z,71.70
2019-05-11T19:12:41.212Z,71.90
2019-05-11T19:15:13.199Z,71.80
2019-05-11T19:17:45.514Z,72.10
2019-05-11T19:20:18.259Z,71.80
2019-05-11T19:22:50.739Z,71.40
2019-05-11T19:25:22.717Z,70.90
2019-05-11T19:27:55.223Z,71.00
2019-05-11T19:30:27.707Z,71.00
2019-05-11T19:33:00.703Z,70.90
2019-05-11T19:35:32.695Z,71.20
2019-05-11T19:38:04.609Z,72.20
2019-05-11T19:40:38.334Z,72.20
2019-05-11T19:43:11.377Z,72.80
2019-05-11T19:45:43.695Z,73.20
2019-05-11T19:48:16.517Z,72.70
2019-05-11T19:51:00.929Z,73.30
2019-05-11T19:53:23.161Z,74.20
2019-05-11T19:55:55.747Z,74.60
2019-05-11T19:58:29.115Z,75.10
2019-05-11T20:01:01.772Z,75.20
2019-05-11T20:03:33.712Z,75.00
2019-05-11T20:06:09.363Z,75.60
2019-05-11T20:08:41.272Z,75.50
2019-05-11T20:11:14.023Z,74.80
2019-05-11T20:13:48.134Z,74.00
2019-05-11T20:16:20.604Z,74.30
2019-05-11T20:18:53.508Z,73.20
2019-05-11T20:21:25.433Z,74.10
2019-05-11T20:23:57.981Z,74.00
2019-05-11T20:26:30.299Z,73.80
2019-05-11T20:29:02.212Z,74.50
2019-05-11T20:31:34.665Z,75.00
2019-05-11T20:34:08.626Z,74.90
2019-05-11T20:36:41.122Z,74.60
2019-05-11T20:39:12.983Z,75.20
2019-05-11T20:41:47.639Z,75.90
2019-05-11T20:44:19.166Z,75.30
2019-05-11T20:46:51.100Z,75.70
2019-05-11T20:49:23.288Z,76.30
2019-05-11T20:51:57.991Z,75.90
2019-05-11T20:54:30.700Z,75.30
2019-05-11T20:57:02.749Z,75.80
2019-05-11T20:59:34.943Z,76.00
2019-05-11T21:02:09.219Z,76.80
2019-05-11T21:04:41.726Z,76.90
2019-05-11T21:07:14.692Z,76.90
2019-05-11T21:09:48.351Z,77.00
2019-05-11T21:12:21.405Z,76.70
2019-05-11T21:14:53.785Z,76.90
2019-05-11T21:17:26.554Z,76.00
2019-05-11T21:19:59.344Z,76.00
2019-05-11T21:22:32.087Z,76.60
2019-05-11T21:25:04.372Z,75.10
2019-05-11T21:27:38.365Z,76.70
2019-05-11T21:30:12.192Z,76.50
2019-05-11T21:32:47.646Z,76.90
2019-05-11T21:35:19.456Z,77.20
2019-05-11T21:37:52.835Z,77.40
2019-05-11T21:40:29.050Z,76.70
2019-05-11T21:43:01.010Z,76.80
2019-05-11T21:45:33.901Z,76.30
2019-05-11T21:48:06.430Z,76.80
2019-05-11T21:50:38.626Z,77.20
2019-05-11T21:53:11.223Z,77.10
2019-05-11T21:55:44.028Z,76.90
2019-05-11T21:58:18.257Z,76.90
2019-05-11T22:00:51.808Z,76.80
2019-05-11T22:03:24.169Z,77.10
2019-05-11T22:05:57.854Z,77.20
2019-05-11T22:08:30.885Z,77.40
2019-05-11T22:11:03.165Z,77.40
2019-05-11T22:13:37.770Z,77.40
2019-05-11T22:16:09.745Z,77.10
2019-05-11T22:18:41.833Z,76.60
2019-05-11T22:21:14.140Z,76.70
2019-05-11T22:23:47.441Z,76.70
2019-05-11T22:26:20.500Z,76.30
2019-05-11T22:28:52.882Z,75.80
2019-05-11T22:31:27.839Z,77.00
2019-05-11T22:34:00.049Z,77.10
2019-05-11T22:36:32.284Z,77.50
2019-05-11T22:39:08.376Z,77.00
2019-05-11T22:41:40.337Z,76.80
2019-05-11T22:44:13.732Z,76.00
2019-05-11T22:46:47.888Z,75.90
2019-05-11T22:49:20.589Z,75.40
2019-05-11T22:51:53.324Z,75.30
2019-05-11T22:54:25.861Z,74.20
2019-05-11T22:56:58.691Z,74.70
2019-05-11T22:59:30.730Z,75.80
2019-05-11T23:02:03.882Z,76.00
2019-05-11T23:04:38.103Z,75.90
2019-05-11T23:07:10.374Z,75.30
2019-05-11T23:09:42.309Z,75.50
2019-05-11T23:12:14.797Z,75.30
2019-05-11T23:14:49.414Z,75.80
2019-05-11T23:17:21.706Z,75.40
2019-05-11T23:19:53.588Z,75.30
2019-05-11T23:22:25.717Z,75.40
2019-05-11T23:24:58.804Z,74.80
2019-05-11T23:27:30.755Z,74.80
2019-05-11T23:30:03.026Z,74.30
2019-05-11T23:32:35.218Z,74.70
2019-05-11T23:35:08.342Z,75.40
2019-05-11T23:37:42.584Z,75.00
2019-05-11T23:40:18.051Z,75.70
2019-05-11T23:42:49.389Z,76.20
2019-05-11T23:45:21.551Z,75.40
2019-05-11T23:47:53.996Z,74.90
2019-05-11T23:50:28.140Z,75.30
2019-05-11T23:53:06.595Z,75.40
2019-05-11T23:55:34.683Z,75.80
2019-05-11T23:58:08.217Z,75.90
